Time;durP1;ratioP1;P1;durP2;ratioP2;P2;SDS_P1;SDS_P2;PMS_P1;PMS_P2;Temp;Humidity;BMP_temperature;BMP_pressure;BME280_temperature;BME280_humidity;BME280_pressure;Samples;Min_cycle;Max_cycle;Signal;HPM_P1;HPM_P2
2022/05/15 00:01:20;;;;;;;29.08;9.15;;;;;;;14.04;60.18;101825.38;4959048;28;20527;-87
2022/05/15 00:03:45;;;;;;;18.75;9.32;;;;;;;14.02;60.55;101821.94;4939610;28;20034;-87
2022/05/15 00:06:10;;;;;;;24.63;9.55;;;;;;;13.95;60.62;101821.34;4962507;28;20035;-87
2022/05/15 00:08:38;;;;;;;24.13;9.07;;;;;;;13.94;60.90;101821.44;4958070;28;20118;-87
2022/05/15 00:11:05;;;;;;;21.48;9.13;;;;;;;13.92;60.69;101826.88;4962168;28;20511;-88
2022/05/15 00:13:31;;;;;;;16.60;8.65;;;;;;;13.85;60.76;101824.56;4967129;28;20115;-87
2022/05/15 00:15:57;;;;;;;21.08;8.27;;;;;;;13.83;60.99;101813.06;4968272;28;20044;-87
2022/05/15 00:18:24;;;;;;;24.40;8.82;;;;;;;13.74;60.77;101819.72;4966777;28;20038;-87
2022/05/15 00:20:49;;;;;;;24.85;8.43;;;;;;;13.70;60.91;101820.81;4964758;28;20046;-86
2022/05/15 00:23:16;;;;;;;22.58;9.27;;;;;;;13.65;61.14;101820.19;4966857;28;20035;-86
2022/05/15 00:25:42;;;;;;;23.83;9.70;;;;;;;13.61;61.08;101807.88;4967599;28;20031;-87
2022/05/15 00:28:08;;;;;;;20.30;8.15;;;;;;;13.61;61.26;101815.91;4969278;28;20077;-86
2022/05/15 00:30:35;;;;;;;23.45;8.80;;;;;;;13.45;61.58;101813.97;4968296;28;20034;-86
2022/05/15 00:33:01;;;;;;;20.90;8.60;;;;;;;13.43;61.66;101813.19;4966075;28;20031;-86
2022/05/15 00:35:27;;;;;;;20.75;7.95;;;;;;;13.42;62.01;101810.59;4965091;28;20544;-86
2022/05/15 00:37:52;;;;;;;23.35;8.57;;;;;;;13.35;61.99;101810.00;4969037;28;20037;-86
2022/05/15 00:40:19;;;;;;;21.08;7.95;;;;;;;13.33;61.83;101817.22;4966077;28;20030;-87
2022/05/15 00:42:45;;;;;;;22.73;7.97;;;;;;;13.26;62.13;101821.13;4966718;28;20030;-87
2022/05/15 00:45:11;;;;;;;18.05;7.30;;;;;;;13.20;62.08;101808.88;4969553;28;20530;-86
2022/05/15 00:47:36;;;;;;;21.08;7.13;;;;;;;13.25;62.50;101814.06;4952337;28;20127;-86
2022/05/15 00:50:08;;;;;;;20.23;7.20;;;;;;;13.21;61.81;101807.94;4969076;28;20407;-86
2022/05/15 00:52:37;;;;;;;19.77;7.82;;;;;;;13.18;62.15;101813.44;4965601;28;20469;-87
2022/05/15 00:55:04;;;;;;;22.90;7.38;;;;;;;13.13;62.17;101814.59;4967783;28;20109;-86
2022/05/15 00:57:34;;;;;;;21.00;7.60;;;;;;;13.14;62.04;101808.31;4965966;28;20031;-87
2022/05/15 01:00:13;;;;;;;20.90;7.25;;;;;;;13.09;62.15;101805.84;4967467;28;20034;-86
2022/05/15 01:02:50;;;;;;;19.52;7.68;;;;;;;13.01;62.10;101794.63;4963112;28;20049;-87
2022/05/15 01:05:17;;;;;;;22.95;7.78;;;;;;;13.00;62.67;101808.06;4966521;28;20057;-86
2022/05/15 01:07:42;;;;;;;22.35;7.20;;;;;;;12.96;62.58;101800.19;4967577;28;20038;-87
2022/05/15 01:10:08;;;;;;;21.90;7.55;;;;;;;12.89;62.71;101796.06;4965613;28;20042;-86
2022/05/15 01:12:36;;;;;;;20.13;7.30;;;;;;;12.90;62.86;101807.59;4964649;28;20405;-87
2022/05/15 01:15:01;;;;;;;19.38;7.30;;;;;;;12.90;62.97;101802.25;4968673;28;20031;-87
2022/05/15 01:17:27;;;;;;;26.48;7.55;;;;;;;12.81;63.25;101806.22;4968735;28;20486;-86
2022/05/15 01:20:12;;;;;;;22.08;7.72;;;;;;;12.75;63.06;101800.28;4964338;28;20073;-86
2022/05/15 01:22:37;;;;;;;22.50;7.82;;;;;;;12.66;63.58;101807.75;4965322;28;20038;-87
2022/05/15 01:25:09;;;;;;;24.13;7.57;;;;;;;12.69;63.20;101809.44;4963074;28;20439;-86
2022/05/15 01:27:35;;;;;;;19.30;7.18;;;;;;;12.65;63.50;101814.03;4947126;28;20049;-87
2022/05/15 01:30:00;;;;;;;21.45;8.05;;;;;;;12.66;63.70;101804.22;4963523;28;20102;-86
2022/05/15 01:32:25;;;;;;;20.60;6.90;;;;;;;12.62;63.60;101813.31;4965344;28;20043;-86
2022/05/15 01:34:51;;;;;;;22.65;6.88;;;;;;;12.59;63.56;101805.44;4965448;28;20365;-86
2022/05/15 01:37:17;;;;;;;20.60;7.28;;;;;;;12.61;63.84;101814.25;4951067;28;20054;-86
2022/05/15 01:39:42;;;;;;;23.60;7.10;;;;;;;12.55;63.80;101801.19;4962712;28;20031;-87
2022/05/15 01:42:08;;;;;;;24.15;7.22;;;;;;;12.57;63.62;101808.16;4954533;28;20081;-86
2022/05/15 01:44:33;;;;;;;20.75;7.43;;;;;;;12.52;64.10;101806.66;4967403;28;20684;-87
2022/05/15 01:46:59;;;;;;;20.25;7.60;;;;;;;12.53;64.12;101797.69;4967083;28;20122;-86
2022/05/15 01:49:24;;;;;;;24.13;7.40;;;;;;;12.52;64.36;101806.66;4966859;28;20046;-87
2022/05/15 01:51:49;;;;;;;19.85;7.07;;;;;;;12.50;64.20;101806.72;4960793;28;20337;-86
2022/05/15 01:54:15;;;;;;;20.60;7.32;;;;;;;12.51;64.36;101807.59;4966675;28;20126;-87
2022/05/15 01:56:41;;;;;;;21.45;7.90;;;;;;;12.46;64.17;101803.31;4965737;28;20412;-86
2022/05/15 01:59:07;;;;;;;20.02;7.20;;;;;;;12.43;64.40;101805.25;4964178;28;20393;-86
2022/05/15 02:01:33;;;;;;;19.02;7.07;;;;;;;12.38;64.63;101799.25;4965576;28;20038;-87
2022/05/15 02:03:58;;;;;;;21.90;6.97;;;;;;;12.30;64.71;101799.56;4966837;28;20043;-87
2022/05/15 02:06:23;;;;;;;22.90;7.50;;;;;;;12.35;64.73;101800.22;4964913;28;20519;-87
2022/05/15 02:08:49;;;;;;;18.98;6.82;;;;;;;12.32;65.06;101794.16;4965640;28;20030;-87
2022/05/15 02:11:15;;;;;;;19.23;7.25;;;;;;;12.30;64.92;101796.03;4963854;28;20026;-87
2022/05/15 02:13:41;;;;;;;16.65;6.80;;;;;;;12.31;65.27;101793.28;4961620;28;20027;-87
2022/05/15 02:16:06;;;;;;;19.45;7.22;;;;;;;12.23;65.29;101781.19;4960736;28;20042;-87
2022/05/15 02:18:32;;;;;;;23.10;7.05;;;;;;;12.25;65.00;101788.22;4966915;28;21103;-87
2022/05/15 02:20:57;;;;;;;17.80;6.38;;;;;;;12.23;65.39;101783.88;4961914;28;20127;-87
2022/05/15 02:23:22;;;;;;;18.95;6.57;;;;;;;12.21;65.31;101790.16;4967064;28;20504;-87
2022/05/15 02:25:48;;;;;;;21.92;6.35;;;;;;;12.21;65.30;101790.16;4967704;28;20058;-87
2022/05/15 02:28:13;;;;;;;20.98;6.90;;;;;;;12.20;65.30;101795.53;4967873;28;20058;-87
2022/05/15 02:30:39;;;;;;;26.00;7.18;;;;;;;12.19;65.63;101784.00;4964518;28;20499;-86
2022/05/15 02:33:05;;;;;;;18.27;7.20;;;;;;;12.13;65.71;101788.75;4966225;28;20400;-87
2022/05/15 02:35:31;;;;;;;20.30;7.22;;;;;;;12.08;65.89;101788.94;4963453;28;20043;-87
2022/05/15 02:37:56;;;;;;;19.92;7.15;;;;;;;12.07;66.15;101788.97;4966566;28;20326;-87
2022/05/15 02:40:23;;;;;;;16.05;7.13;;;;;;;12.03;66.12;101793.56;4964170;28;20449;-87
2022/05/15 02:42:49;;;;;;;20.10;7.05;;;;;;;11.99;66.23;101783.09;4967682;28;20369;-87
2022/05/15 02:45:16;;;;;;;22.40;6.72;;;;;;;11.93;66.33;101781.56;4966766;28;20427;-87
2022/05/15 02:47:41;;;;;;;22.63;7.47;;;;;;;11.91;66.60;101775.41;4967645;28;20038;-87
2022/05/15 02:52:53;;;;;;;19.95;7.40;;;;;;;11.82;67.01;101784.63;4958520;28;20061;-87
2022/05/15 02:55:20;;;;;;;18.05;6.60;;;;;;;11.79;67.22;101784.78;4965742;28;20034;-87
2022/05/15 02:57:45;;;;;;;22.40;7.30;;;;;;;11.80;67.04;101780.31;4965835;28;20027;-87
2022/05/15 03:00:12;;;;;;;22.25;7.72;;;;;;;11.70;67.48;101772.69;4963767;28;20465;-86
2022/05/15 03:02:38;;;;;;;24.02;7.35;;;;;;;11.67;67.78;101780.81;4966656;28;20062;-87
2022/05/15 03:05:05;;;;;;;20.48;7.47;;;;;;;11.65;67.94;101782.66;4965678;28;20069;-87
2022/05/15 03:07:30;;;;;;;24.00;7.65;;;;;;;11.57;67.94;101766.09;4966003;28;20037;-87
2022/05/15 03:09:55;;;;;;;19.73;7.45;;;;;;;11.54;68.32;101773.38;4960877;28;20035;-87
2022/05/15 03:12:21;;;;;;;20.58;7.82;;;;;;;11.53;68.33;101768.94;4967418;28;20415;-86
2022/05/15 03:14:46;;;;;;;26.20;7.20;;;;;;;11.50;68.33;101758.44;4967066;28;20033;-87
2022/05/15 03:17:11;;;;;;;21.92;7.50;;;;;;;11.48;68.54;101769.13;4970184;28;20302;-87
2022/05/15 03:19:36;;;;;;;20.80;6.70;;;;;;;11.45;68.62;101764.81;4961225;28;20361;-87
2022/05/15 03:22:02;;;;;;;20.50;6.65;;;;;;;11.44;68.77;101764.84;4970481;28;20058;-87
2022/05/15 03:24:27;;;;;;;18.20;6.68;;;;;;;11.37;69.13;101761.59;4970421;28;20086;-87
2022/05/15 03:26:53;;;;;;;22.10;7.10;;;;;;;11.37;69.23;101763.34;4969207;28;20035;-87
2022/05/15 03:29:19;;;;;;;23.10;7.30;;;;;;;11.33;69.51;101759.97;4966608;28;20034;-87
2022/05/15 03:31:46;;;;;;;19.65;7.35;;;;;;;11.32;69.36;101758.19;4967075;28;20049;-86
2022/05/15 03:34:13;;;;;;;23.98;8.05;;;;;;;11.29;69.65;101766.34;4960994;28;20030;-87
2022/05/15 03:36:41;;;;;;;23.58;7.82;;;;;;;11.28;69.53;101763.72;4967852;28;20126;-86
2022/05/15 03:39:08;;;;;;;22.75;7.43;;;;;;;11.28;69.82;101761.06;4968359;28;20070;-87
2022/05/15 03:41:37;;;;;;;19.20;7.30;;;;;;;11.19;69.61;101763.16;4970394;28;20037;-87
2022/05/15 03:44:03;;;;;;;21.92;8.18;;;;;;;11.18;70.26;101763.22;4969060;28;20035;-87
2022/05/15 03:46:28;;;;;;;23.17;7.60;;;;;;;11.22;70.03;101756.84;4968692;28;20066;-87
2022/05/15 03:48:54;;;;;;;26.85;7.10;;;;;;;11.19;69.94;101759.63;4969034;28;20061;-87
2022/05/15 03:51:20;;;;;;;22.00;7.50;;;;;;;11.19;70.04;101767.59;4965857;28;20034;-86
2022/05/15 03:53:45;;;;;;;23.80;7.35;;;;;;;11.13;70.42;101754.53;4966587;28;20384;-87
2022/05/15 03:56:10;;;;;;;25.98;7.95;;;;;;;11.09;70.26;101745.78;4969165;28;20125;-86
2022/05/15 03:58:37;;;;;;;16.73;6.90;;;;;;;11.16;70.45;101765.06;4970278;28;20356;-86
2022/05/15 04:01:04;;;;;;;19.85;7.05;;;;;;;11.14;70.50;101764.25;4962740;28;20279;-87
2022/05/15 04:03:29;;;;;;;21.50;7.72;;;;;;;11.13;70.40;101759.88;4968735;28;20023;-87
2022/05/15 04:05:55;;;;;;;19.63;7.75;;;;;;;11.09;70.67;101758.25;4965040;28;20102;-86
2022/05/15 04:08:20;;;;;;;19.58;7.80;;;;;;;11.11;70.67;101764.38;4967779;28;20041;-86
2022/05/15 04:10:46;;;;;;;23.88;7.57;;;;;;;11.10;70.70;101765.31;4967086;28;20050;-87
2022/05/15 04:13:11;;;;;;;24.55;7.25;;;;;;;11.11;70.56;101761.72;4968677;28;20039;-86
2022/05/15 04:15:37;;;;;;;18.13;7.05;;;;;;;11.14;70.61;101769.59;4967979;28;20023;-87
2022/05/15 04:18:02;;;;;;;28.50;7.57;;;;;;;11.18;70.95;101773.88;4969529;28;20030;-87
2022/05/15 04:20:29;;;;;;;23.35;7.03;;;;;;;11.19;70.57;101783.59;4961646;28;20096;-86
2022/05/15 04:22:54;;;;;;;23.73;8.43;;;;;;;11.22;70.50;101783.50;4968580;28;20019;-86
2022/05/15 04:25:20;;;;;;;26.02;7.50;;;;;;;11.27;70.59;101780.66;4966797;28;20058;-87
2022/05/15 04:27:46;;;;;;;26.70;7.68;;;;;;;11.26;70.74;101779.78;4966353;28;20043;-87
2022/05/15 04:30:15;;;;;;;21.23;7.28;;;;;;;11.25;70.75;101777.19;4943880;28;20540;-87
2022/05/15 04:32:41;;;;;;;20.83;7.47;;;;;;;11.22;71.06;101770.16;4970005;28;20030;-87
2022/05/15 04:35:07;;;;;;;19.10;7.53;;;;;;;11.25;70.83;101774.53;4967779;28;20080;-87
2022/05/15 04:37:33;;;;;;;21.92;7.28;;;;;;;11.25;70.61;101770.06;4967688;28;20041;-87
2022/05/15 04:39:59;;;;;;;23.88;8.18;;;;;;;11.27;71.08;101769.97;4965674;28;20035;-87
2022/05/15 04:42:24;;;;;;;18.58;7.25;;;;;;;11.28;70.61;101764.59;4970164;28;20049;-87
2022/05/15 04:44:49;;;;;;;21.33;7.60;;;;;;;11.23;71.10;101770.09;4965783;28;20339;-87
2022/05/15 04:47:15;;;;;;;19.33;7.50;;;;;;;11.26;71.23;101779.78;4969244;28;20105;-87
2022/05/15 04:49:40;;;;;;;21.83;7.63;;;;;;;11.28;71.32;101769.91;4965341;28;20031;-87
2022/05/15 04:52:05;;;;;;;23.13;7.82;;;;;;;11.32;70.83;101760.00;4967786;28;20195;-87
2022/05/15 04:54:31;;;;;;;24.60;7.75;;;;;;;11.41;70.58;101762.31;4968181;28;20026;-86
2022/05/15 04:56:56;;;;;;;19.40;7.80;;;;;;;11.43;70.64;101766.66;4964377;28;20030;-87
2022/05/15 04:59:21;;;;;;;23.20;8.30;;;;;;;11.46;70.92;101763.88;4967159;28;20031;-87
2022/05/15 05:01:47;;;;;;;20.77;7.93;;;;;;;11.50;71.60;101771.75;4969282;28;20022;-87
2022/05/15 05:04:12;;;;;;;27.88;8.80;;;;;;;11.52;71.01;101769.88;4967104;28;20449;-86
2022/05/15 05:06:37;;;;;;;27.73;8.38;;;;;;;11.58;70.62;101772.28;4962548;28;20043;-87
2022/05/15 05:09:03;;;;;;;22.40;8.23;;;;;;;11.58;70.74;101757.19;4962364;28;20094;-86
2022/05/15 05:11:28;;;;;;;26.88;8.40;;;;;;;11.69;70.80;101762.06;4948889;28;20027;-87
2022/05/15 05:13:53;;;;;;;21.35;8.50;;;;;;;11.75;70.60;101772.50;4967431;28;20031;-87
2022/05/15 05:16:18;;;;;;;24.70;9.02;;;;;;;11.83;70.71;101778.41;4964687;28;20033;-87
2022/05/15 05:18:44;;;;;;;28.85;9.27;;;;;;;11.94;70.49;101776.16;4958951;28;20081;-87
2022/05/15 05:21:09;;;;;;;24.00;9.30;;;;;;;12.06;70.11;101776.59;4968117;28;20030;-86
2022/05/15 05:23:34;;;;;;;21.35;9.35;;;;;;;12.18;69.99;101778.75;4968437;28;20035;-86
2022/05/15 05:26:00;;;;;;;25.67;9.90;;;;;;;12.29;69.56;101779.16;4967458;28;20058;-87
2022/05/15 05:28:26;;;;;;;22.08;9.68;;;;;;;12.42;68.98;101783.03;4966617;28;20649;-87
2022/05/15 05:30:52;;;;;;;19.25;9.13;;;;;;;12.54;68.79;101784.28;4957629;28;20085;-87
2022/05/15 05:33:18;;;;;;;19.10;10.07;;;;;;;12.67;68.69;101779.28;4968712;28;20039;-87
2022/05/15 05:35:44;;;;;;;21.45;9.43;;;;;;;12.79;68.44;101778.72;4968978;28;20053;-87
2022/05/15 05:38:10;;;;;;;28.08;10.02;;;;;;;12.91;68.10;101770.13;4967806;28;20035;-87
2022/05/15 05:40:35;;;;;;;27.55;10.57;;;;;;;13.10;67.10;101769.28;4966767;28;20481;-87
2022/05/15 05:43:01;;;;;;;20.48;10.23;;;;;;;13.21;67.07;101772.34;4967484;28;20525;-87
2022/05/15 05:45:26;;;;;;;21.05;11.40;;;;;;;13.38;66.63;101768.91;4966403;28;20038;-87
2022/05/15 05:47:52;;;;;;;24.52;9.77;;;;;;;13.62;66.46;101774.84;4966516;28;20066;-87
2022/05/15 05:50:21;;;;;;;23.70;10.50;;;;;;;13.86;66.08;101776.31;4962630;28;20026;-87
2022/05/15 05:52:47;;;;;;;28.13;11.25;;;;;;;14.08;64.53;101773.41;4966441;28;20034;-87
2022/05/15 05:55:15;;;;;;;22.88;11.30;;;;;;;14.25;64.38;101777.03;4962708;28;20041;-88
2022/05/15 05:57:42;;;;;;;20.50;10.55;;;;;;;14.50;64.25;101774.84;4967193;28;20034;-87
2022/05/15 06:00:15;;;;;;;22.17;11.07;;;;;;;14.77;62.91;101777.03;4961611;28;20098;-88
2022/05/15 06:02:40;;;;;;;26.08;11.75;;;;;;;14.93;62.66;101775.28;4960770;28;20050;-87
2022/05/15 06:05:06;;;;;;;21.40;11.32;;;;;;;15.12;61.96;101780.47;4965575;28;20039;-87
2022/05/15 06:07:33;;;;;;;24.88;11.30;;;;;;;15.27;61.95;101778.78;4967947;28;20035;-87
2022/05/15 06:09:59;;;;;;;19.80;11.50;;;;;;;15.49;61.13;101775.75;4964156;28;20109;-87
2022/05/15 06:12:24;;;;;;;23.70;11.52;;;;;;;15.69;59.87;101779.06;4964931;28;20121;-87
2022/05/15 06:14:51;;;;;;;26.20;11.80;;;;;;;15.78;59.31;101771.44;4966208;28;20045;-87
2022/05/15 06:17:21;;;;;;;25.27;12.43;;;;;;;15.99;59.85;101767.50;4949300;28;20046;-87
2022/05/15 06:19:47;;;;;;;20.42;11.40;;;;;;;16.19;58.87;101764.50;4962755;28;20109;-86
2022/05/15 06:22:12;;;;;;;24.67;12.38;;;;;;;16.25;58.49;101765.94;4966965;28;20486;-87
2022/05/15 06:24:37;;;;;;;26.67;12.50;;;;;;;16.38;58.44;101772.28;4966454;28;20027;-87
2022/05/15 06:27:03;;;;;;;23.60;12.73;;;;;;;16.42;57.59;101771.16;4965211;28;20027;-87
2022/05/15 06:29:29;;;;;;;21.17;12.27;;;;;;;16.59;57.50;101770.13;4965697;28;20125;-87
2022/05/15 06:31:55;;;;;;;24.35;13.23;;;;;;;16.74;56.41;101771.03;4963933;28;20033;-87
2022/05/15 06:34:20;;;;;;;24.23;12.20;;;;;;;16.92;56.40;101772.56;4967068;28;20391;-87
2022/05/15 06:36:46;;;;;;;21.40;13.30;;;;;;;17.00;55.98;101773.91;4965291;28;20047;-86
2022/05/15 06:39:11;;;;;;;19.67;12.48;;;;;;;17.05;56.75;101767.28;4960880;28;20448;-86
2022/05/15 06:41:37;;;;;;;20.27;12.93;;;;;;;17.24;56.27;101774.19;4965856;28;20493;-87
2022/05/15 06:44:03;;;;;;;21.80;12.40;;;;;;;17.48;55.09;101758.28;4965788;28;20126;-87
2022/05/15 06:46:28;;;;;;;22.67;11.02;;;;;;;17.60;53.61;101761.03;4966718;28;20114;-87
2022/05/15 06:48:54;;;;;;;19.13;12.20;;;;;;;17.75;54.34;101767.25;4960023;28;20058;-87
2022/05/15 06:51:20;;;;;;;22.60;12.15;;;;;;;17.85;53.45;101768.41;4952593;28;20101;-87
2022/05/15 06:53:47;;;;;;;26.80;12.95;;;;;;;17.97;53.19;101771.22;4970192;28;20477;-87
2022/05/15 06:58:57;;;;;;;17.63;11.52;;;;;;;18.31;52.57;101765.28;4964561;28;20050;-87
2022/05/15 07:01:22;;;;;;;20.05;10.93;;;;;;;18.53;52.96;101763.78;4969476;28;20030;-87
2022/05/15 07:03:48;;;;;;;19.00;10.93;;;;;;;18.64;51.82;101762.06;4969497;28;20030;-87
2022/05/15 07:06:13;;;;;;;19.52;10.80;;;;;;;18.84;50.95;101763.38;4970245;28;20041;-86
2022/05/15 07:08:39;;;;;;;15.18;10.07;;;;;;;19.01;49.97;101770.25;4966505;28;20034;-87
2022/05/15 07:11:05;;;;;;;20.17;10.20;;;;;;;19.14;49.87;101778.31;4968957;28;20381;-87
2022/05/15 07:13:32;;;;;;;17.60;9.75;;;;;;;19.31;48.88;101771.69;4968503;28;20121;-86
2022/05/15 07:15:57;;;;;;;18.55;9.27;;;;;;;19.54;49.25;101761.94;4968935;28;20113;-87
2022/05/15 07:18:23;;;;;;;20.20;9.05;;;;;;;20.00;48.07;101769.31;4963256;28;20113;-86
2022/05/15 07:20:51;;;;;;;18.15;8.88;;;;;;;20.38;46.73;101779.88;4969720;28;20034;-87
2022/05/15 07:23:16;;;;;;;18.85;9.48;;;;;;;20.84;46.95;101779.00;4969218;28;20034;-87
2022/05/15 07:25:42;;;;;;;13.75;8.40;;;;;;;21.30;45.31;101772.59;4967896;28;20476;-87
2022/05/15 07:28:07;;;;;;;13.93;8.52;;;;;;;21.83;45.02;101776.34;4964630;28;20035;-87
2022/05/15 07:30:32;;;;;;;14.70;8.68;;;;;;;22.21;42.43;101774.13;4952010;28;20400;-85
2022/05/15 07:32:58;;;;;;;15.10;8.85;;;;;;;22.35;42.43;101777.34;4968176;28;20113;-85
2022/05/15 07:35:23;;;;;;;14.27;8.45;;;;;;;22.59;41.34;101770.81;4969100;28;20047;-85
2022/05/15 07:37:48;;;;;;;16.77;8.07;;;;;;;23.04;41.35;101775.94;4948453;28;20437;-85
2022/05/15 07:40:14;;;;;;;16.75;7.68;;;;;;;23.48;39.74;101776.50;4957529;28;20598;-84
2022/05/15 07:42:41;;;;;;;14.90;8.75;;;;;;;23.92;38.88;101775.16;4960037;28;20023;-84
2022/05/15 07:45:08;;;;;;;15.55;7.80;;;;;;;24.21;38.10;101758.84;4956698;28;20069;-84
2022/05/15 07:47:33;;;;;;;15.63;7.88;;;;;;;24.36;36.87;101767.41;4938392;28;20047;-85
2022/05/15 07:49:58;;;;;;;15.00;8.02;;;;;;;24.66;36.00;101765.50;4961624;28;20031;-84
2022/05/15 07:52:24;;;;;;;13.35;7.35;;;;;;;24.98;36.78;101762.41;4962108;28;20050;-84
2022/05/15 07:54:50;;;;;;;12.85;7.32;;;;;;;25.59;36.10;101753.66;4956126;28;20047;-84
2022/05/15 07:57:15;;;;;;;15.57;8.00;;;;;;;25.85;34.51;101761.09;4961864;28;20031;-83
2022/05/15 07:59:40;;;;;;;18.13;8.60;;;;;;;26.01;33.78;101759.38;4941391;28;20117;-83
2022/05/15 08:02:06;;;;;;;15.23;8.32;;;;;;;26.20;32.57;101757.47;4940738;28;20062;-83
2022/05/15 08:08:00;;;;;;;13.63;7.68;;;;;;;26.30;33.04;101761.84;4948152;28;20023;-85
2022/05/15 08:10:02;;;;;;;14.02;7.28;;;;;;;27.45;31.71;101757.03;4959368;28;20053;-86
2022/05/15 08:12:27;;;;;;;12.43;7.35;;;;;;;27.93;31.02;101752.72;4952569;28;20027;-84
2022/05/15 08:14:52;;;;;;;14.32;7.38;;;;;;;28.57;29.32;101761.97;4959207;28;20110;-86
2022/05/15 08:17:18;;;;;;;14.90;7.90;;;;;;;28.86;29.65;101753.16;4964058;28;20042;-85
2022/05/15 08:25:10;;;;;;;16.77;7.68;;;;;;;29.54;27.51;101746.19;4968423;28;20045;-83
2022/05/15 08:27:36;;;;;;;12.10;7.53;;;;;;;29.55;27.14;101747.88;4958511;28;20035;-82
2022/05/15 08:30:02;;;;;;;13.70;7.55;;;;;;;29.49;27.27;101744.00;4968937;28;20058;-84
2022/05/15 08:32:28;;;;;;;13.52;7.50;;;;;;;29.48;26.84;101746.94;4968646;28;20478;-81
2022/05/15 08:34:53;;;;;;;11.48;7.00;;;;;;;29.59;26.32;101741.03;4966981;28;20097;-83
2022/05/15 08:37:18;;;;;;;13.35;7.40;;;;;;;29.29;26.46;101738.09;4965396;28;20062;-81
2022/05/15 08:39:44;;;;;;;15.50;7.97;;;;;;;29.15;26.37;101732.53;4969081;28;20027;-82
2022/05/15 08:42:20;;;;;;;14.35;8.00;;;;;;;29.60;26.67;101719.97;4966850;28;20101;-81
2022/05/15 08:44:46;;;;;;;11.73;7.05;;;;;;;30.14;25.57;101718.00;4964234;28;20022;-85
2022/05/15 08:47:15;;;;;;;14.68;7.68;;;;;;;30.55;24.92;101714.00;4957753;28;20107;-85
2022/05/15 08:49:45;;;;;;;14.73;7.05;;;;;;;30.99;23.77;101719.53;4958039;28;20031;-86
2022/05/15 08:52:24;;;;;;;11.57;6.90;;;;;;;31.28;23.65;101712.28;4961112;28;20374;-85
2022/05/15 08:55:12;;;;;;;12.05;6.60;;;;;;;31.57;23.78;101703.97;4958460;28;20095;-83
2022/05/15 08:57:56;;;;;;;11.32;6.28;;;;;;;31.98;23.97;101706.94;4955082;28;20089;-84
2022/05/15 09:00:39;;;;;;;15.75;6.10;;;;;;;32.45;23.02;101702.66;4961653;28;20400;-85
2022/05/15 09:03:14;;;;;;;;;;;;;;;33.29;23.71;101706.28;4958077;28;20023;-85
2022/05/15 09:05:50;;;;;;;13.75;5.90;;;;;;;33.02;21.77;101706.16;4957712;28;20590;-85
2022/05/15 09:08:57;;;;;;;11.70;5.45;;;;;;;33.69;22.14;101708.13;4955982;28;20480;-85
2022/05/15 09:11:55;;;;;;;8.90;5.00;;;;;;;34.09;20.87;101708.16;4945005;28;20027;-83
2022/05/15 09:14:26;;;;;;;10.38;4.70;;;;;;;34.11;19.75;101710.69;4956341;28;20046;-82
2022/05/15 09:16:57;;;;;;;7.55;4.20;;;;;;;34.22;18.33;101717.50;4953483;28;20484;-82
2022/05/15 09:19:23;;;;;;;7.82;4.10;;;;;;;34.40;18.23;101709.41;4952948;28;20023;-83
2022/05/15 09:21:54;;;;;;;10.38;4.35;;;;;;;34.77;18.44;101716.16;4958177;28;21635;-83
2022/05/15 09:24:32;;;;;;;9.60;4.40;;;;;;;34.87;18.34;101712.97;4957373;28;20030;-84
2022/05/15 09:27:15;;;;;;;12.15;4.78;;;;;;;34.58;18.08;101712.41;4954640;28;20065;-84
2022/05/15 09:29:40;;;;;;;9.70;4.70;;;;;;;34.80;17.75;101714.88;4960065;28;20066;-83
2022/05/15 09:32:51;;;;;;;7.93;3.88;;;;;;;35.53;18.30;101715.44;4957494;28;20039;-84
2022/05/15 09:35:41;;;;;;;11.75;3.90;;;;;;;35.64;17.20;101706.44;4951712;28;20089;-83
2022/05/15 09:38:27;;;;;;;9.70;4.40;;;;;;;35.46;16.05;101703.56;4961764;28;20608;-85
2022/05/15 09:43:51;;;;;;;7.43;2.92;;;;;;;35.64;16.50;101697.28;4961905;28;20097;-85
2022/05/15 09:46:19;;;;;;;10.88;4.10;;;;;;;35.15;16.19;101705.19;4962929;28;20113;-84
2022/05/15 09:49:00;;;;;;;9.50;3.88;;;;;;;35.01;18.05;101706.31;4967209;28;20037;-84
2022/05/15 09:51:29;;;;;;;7.75;3.80;;;;;;;35.29;16.62;101694.91;4967600;28;20026;-86
2022/05/15 09:53:57;;;;;;;9.30;3.65;;;;;;;36.05;15.48;101704.25;4965587;28;20023;-85
2022/05/15 09:56:29;;;;;;;7.93;4.10;;;;;;;35.73;15.44;101695.09;4952755;28;20031;-84
2022/05/15 09:59:11;;;;;;;6.50;3.40;;;;;;;35.52;15.30;101694.38;4958763;28;20034;-86
2022/05/15 10:01:47;;;;;;;7.03;3.83;;;;;;;35.74;15.99;101671.84;4965151;28;20042;-83
2022/05/15 10:04:25;;;;;;;7.88;3.72;;;;;;;36.24;15.85;101686.56;4964104;28;20391;-84
2022/05/15 10:06:57;;;;;;;8.98;3.40;;;;;;;36.20;16.60;101695.56;4960930;28;20030;-84
2022/05/15 10:09:31;;;;;;;8.13;3.57;;;;;;;36.93;15.62;101686.53;4966899;28;20027;-84
2022/05/15 10:12:06;;;;;;;7.15;3.90;;;;;;;37.48;14.41;101686.44;4964156;28;20322;-83
2022/05/15 10:14:41;;;;;;;11.70;4.00;;;;;;;37.80;15.13;101687.84;4967143;28;20061;-84
2022/05/15 10:17:09;;;;;;;10.25;3.80;;;;;;;38.41;14.28;101680.19;4966542;28;20050;-83
2022/05/15 10:19:44;;;;;;;10.00;4.55;;;;;;;38.83;13.75;101675.28;4967381;28;20041;-83
2022/05/15 10:22:22;;;;;;;11.23;3.90;;;;;;;39.39;14.27;101677.53;4967029;28;20027;-82
2022/05/15 10:24:50;;;;;;;9.80;3.60;;;;;;;39.62;13.45;101687.69;4966612;28;20047;-83
2022/05/15 10:27:29;;;;;;;9.73;3.95;;;;;;;39.75;13.79;101681.81;4962825;28;20037;-82
2022/05/15 10:30:18;;;;;;;10.50;3.95;;;;;;;39.81;14.35;101678.03;4960455;28;20689;-82
2022/05/15 10:33:12;;;;;;;8.85;3.60;;;;;;;40.68;14.40;101682.19;4966993;28;20501;-83
2022/05/15 10:35:49;;;;;;;8.45;3.80;;;;;;;40.49;12.21;101674.06;4959009;28;20043;-84
2022/05/15 10:38:28;;;;;;;8.80;3.80;;;;;;;40.19;12.40;101662.50;4965219;28;20210;-86
2022/05/15 10:41:09;;;;;;;11.25;3.90;;;;;;;39.84;12.90;101663.59;4966182;28;20078;-83
2022/05/15 10:43:44;;;;;;;11.40;4.00;;;;;;;39.27;14.21;101664.50;4965515;28;20535;-83
2022/05/15 10:46:25;;;;;;;6.65;3.20;;;;;;;40.07;14.35;101671.75;4948276;28;20039;-84
2022/05/15 10:49:01;;;;;;;7.35;3.58;;;;;;;40.28;12.82;101664.56;4965848;28;20041;-83
2022/05/15 10:51:36;;;;;;;6.80;3.30;;;;;;;40.50;12.93;101655.38;4968672;28;20030;-83
2022/05/15 10:57:40;;;;;;;6.68;3.00;;;;;;;41.61;11.60;101665.38;4959266;28;20117;-84
2022/05/15 11:00:24;;;;;;;7.63;3.42;;;;;;;40.94;12.75;101650.69;4964902;28;20047;-88
2022/05/15 11:03:26;;;;;;;8.02;3.70;;;;;;;40.53;12.82;101644.59;4965851;28;20109;-84
2022/05/15 11:06:06;;;;;;;7.88;3.28;;;;;;;39.89;11.95;101652.53;4959773;28;20041;-84
2022/05/15 11:08:48;;;;;;;7.90;3.22;;;;;;;39.89;13.15;101641.38;4957560;28;20117;-84
2022/05/15 11:11:33;;;;;;;8.00;3.03;;;;;;;39.93;13.10;101645.34;4956867;28;20027;-83
2022/05/15 11:14:22;;;;;;;8.90;5.18;;;;;;;40.01;12.88;101644.91;4966852;28;20552;-83
2022/05/15 11:17:12;;;;;;;10.30;6.70;;;;;;;41.01;12.08;101647.69;4962001;28;20023;-84
2022/05/15 11:19:44;;;;;;;8.02;3.35;;;;;;;40.93;11.77;101639.78;4964337;28;20030;-84
2022/05/15 11:22:38;;;;;;;7.13;2.90;;;;;;;41.56;11.65;101632.66;4963914;28;20498;-82
2022/05/15 11:25:22;;;;;;;7.88;2.75;;;;;;;42.30;11.26;101629.00;4950161;28;20081;-83
2022/05/15 11:27:55;;;;;;;9.40;3.00;;;;;;;41.39;10.49;101631.91;4966251;28;20101;-84
2022/05/15 11:30:27;;;;;;;7.20;3.05;;;;;;;41.26;11.03;101627.56;4960330;28;20034;-84
2022/05/15 11:32:52;;;;;;;5.60;2.87;;;;;;;41.74;10.94;101620.22;4967941;28;20023;-88
2022/05/15 11:35:17;;;;;;;8.17;3.07;;;;;;;41.40;10.86;101614.91;4960288;28;20035;-87
2022/05/15 11:37:56;;;;;;;6.13;2.80;;;;;;;41.76;10.80;101616.03;4969351;28;20053;-89
2022/05/15 11:40:34;;;;;;;6.32;2.90;;;;;;;41.10;11.77;101601.47;4962409;28;20115;-86
2022/05/15 11:43:25;;;;;;;6.97;2.97;;;;;;;41.39;10.97;101599.25;4971852;28;20039;-87
2022/05/15 11:45:57;;;;;;;11.88;3.22;;;;;;;40.76;11.17;101597.97;4960647;28;20512;-85